Portada
METAR-TAF:

METAR-TAF

Aeroports :

Niigata, Japó

latitud: 37-57N, longitud: 139-07E, altitud: 1 m

Observació

L'informe es va fer fa 26 minuts, a les 12:00 UTC
Vent 11 kt del Sud-Est
Temperatura 22°C
Humitat 50%
Pressió 1016 hPa
Visibilitat 10 km o més
Escasses núvols a una alçada de 5000 ft
Núvols disperses a una alçada de 12000 ft
Cel ennuvolat

METAR: RJSN 191200Z 14011KT 9999 FEW050 SCT120 BKN/// 22/11 Q1016

Hora: 21:26 (12:26 UTC)

Pronòstic

L'informe es va fer fa 1 hora i 20 minuts, a les 11:06 UTC
Pronòstic vàlid del 19 a les 12 UTC al 20 a les 18 UTC
Vent 12 kt del Sud/Sud-Est
Visibilitat 10 km o més
Escasses núvols a una alçada de 3000 ft

TAF: RJSN 191106Z 1912/2018 16012KT 9999 FEW030

Observacions i pronòstics meteorològics de més de 4000 aeroports (METAR i TAF).

Les estacions disponibles són els punts grocs i vermells al mapa.

Posi el ratolí al punt desitjat per veure el nom de l'estació.

Feu clic per veure les observacions i els pronòstics meteorològics.

Per canviar el mapa: feu clic els botons verds amb una creu de color negre per apropar; al botó verd amb un guió per allunyar la imatge; o en les fletxes verdes per a mapes adjacents.


METAR-TAF: